Time;durP1;ratioP1;P1;durP2;ratioP2;P2;SDS_P1;SDS_P2;PMS_P1;PMS_P2;Temp;Humidity;BMP_temperature;BMP_pressure;BME280_temperature;BME280_humidity;BME280_pressure;Samples;Min_cycle;Max_cycle;Signal;HPM_P1;HPM_P2
2022/10/08 00:01:58;;;;;;;17.55;2.13;;;13.70;99.90;;;;;;4053802;29;20222;-90
2022/10/08 00:03:59;;;;;;;12.52;2.00;;;13.70;99.90;;;;;;4069430;29;20180;-95
2022/10/08 00:06:12;;;;;;;10.38;1.92;;;13.70;99.90;;;;;;4053295;29;20189;-90
2022/10/08 00:08:13;;;;;;;7.22;1.80;;;13.80;99.90;;;;;;4069123;29;20268;-94
2022/10/08 00:10:14;;;;;;;8.80;1.67;;;13.80;99.90;;;;;;4084540;29;20192;-90
2022/10/08 00:12:15;;;;;;;11.63;1.95;;;13.90;99.90;;;;;;4069301;29;20172;-95
2022/10/08 00:14:16;;;;;;;11.73;2.03;;;13.90;99.90;;;;;;4069281;29;20180;-90
2022/10/08 00:16:16;;;;;;;11.35;2.13;;;13.80;99.90;;;;;;4068865;29;20172;-90
2022/10/08 00:18:17;;;;;;;10.68;2.00;;;13.80;99.90;;;;;;4069040;29;20184;-96
2022/10/08 00:20:18;;;;;;;12.30;2.22;;;13.80;99.90;;;;;;4068902;29;20324;-94
2022/10/08 00:22:19;;;;;;;11.25;1.70;;;13.90;99.90;;;;;;4069899;29;20248;-95
2022/10/08 00:24:20;;;;;;;10.88;2.05;;;14.00;99.90;;;;;;4068830;29;20183;-94
2022/10/08 00:26:23;;;;;;;10.82;2.33;;;14.00;99.90;;;;;;4069180;29;20187;-91
2022/10/08 00:28:23;;;;;;;16.73;2.30;;;13.90;99.90;;;;;;4069620;29;20189;-94
2022/10/08 00:30:24;;;;;;;16.05;2.38;;;14.00;99.90;;;;;;4068524;29;20233;-94
2022/10/08 00:32:25;;;;;;;15.00;2.35;;;14.00;99.90;;;;;;4068813;29;20188;-90
2022/10/08 00:34:26;;;;;;;10.30;1.80;;;13.90;99.90;;;;;;4068763;29;20606;-96
2022/10/08 00:36:32;;;;;;;13.30;2.28;;;13.90;99.90;;;;;;4068716;29;20212;-91
2022/10/08 00:38:33;;;;;;;9.27;1.88;;;14.10;99.90;;;;;;4069658;29;20168;-93
2022/10/08 00:40:42;;;;;;;22.00;2.30;;;14.10;99.90;;;;;;4089797;29;20278;-94
2022/10/08 00:42:42;;;;;;;12.20;1.92;;;14.00;99.90;;;;;;4073814;29;20199;-94
2022/10/08 00:44:45;;;;;;;8.85;2.03;;;14.00;99.90;;;;;;4073819;29;20239;-92
2022/10/08 00:46:49;;;;;;;11.02;1.90;;;14.10;99.90;;;;;;4073823;29;20216;-92
2022/10/08 00:49:05;;;;;;;15.93;2.92;;;14.10;99.90;;;;;;4073642;29;20271;-92
2022/10/08 00:51:05;;;;;;;14.73;2.10;;;14.10;99.90;;;;;;4073739;29;20221;-93
2022/10/08 00:53:08;;;;;;;11.68;1.80;;;14.00;99.90;;;;;;4074170;29;20180;-94
2022/10/08 00:55:13;;;;;;;10.75;2.35;;;14.10;99.90;;;;;;4074102;29;20287;-91
2022/10/08 00:57:15;;;;;;;10.68;1.90;;;14.20;99.90;;;;;;4073708;29;20299;-94
2022/10/08 00:59:16;;;;;;;9.40;1.75;;;14.10;99.90;;;;;;4074348;29;20340;-90
2022/10/08 01:01:17;;;;;;;16.75;2.42;;;14.10;99.90;;;;;;4058175;29;20602;-95
2022/10/08 01:03:17;;;;;;;14.30;2.40;;;14.30;99.90;;;;;;4074038;29;20184;-93
2022/10/08 01:05:41;;;;;;;10.85;2.08;;;14.30;99.90;;;;;;4058207;29;20184;-92
2022/10/08 01:07:49;;;;;;;11.30;2.53;;;14.40;99.90;;;;;;4074085;29;20231;-91
2022/10/08 01:10:09;;;;;;;12.70;2.30;;;14.30;99.90;;;;;;4073659;29;20262;-93
2022/10/08 01:12:43;;;;;;;10.73;2.08;;;14.40;99.90;;;;;;4073826;29;20231;-91
2022/10/08 01:14:47;;;;;;;9.20;1.80;;;14.40;99.90;;;;;;4073736;29;20645;-90
2022/10/08 01:17:25;;;;;;;11.13;1.58;;;14.20;99.90;;;;;;4073519;29;20212;-95
2022/10/08 01:19:44;;;;;;;10.27;2.13;;;14.20;99.90;;;;;;4073566;29;20188;-92
2022/10/08 01:22:06;;;;;;;13.25;2.03;;;14.10;99.90;;;;;;4073618;29;20196;-91
2022/10/08 01:24:21;;;;;;;10.25;1.80;;;14.20;99.90;;;;;;4073555;29;20203;-90
2022/10/08 01:26:53;;;;;;;12.65;2.10;;;14.00;99.90;;;;;;4073354;29;20177;-91
2022/10/08 01:29:10;;;;;;;17.77;2.20;;;14.00;99.90;;;;;;4073586;29;20576;-94
2022/10/08 01:31:18;;;;;;;12.55;2.28;;;14.20;99.90;;;;;;4073560;29;20232;-95
2022/10/08 01:33:30;;;;;;;10.82;2.00;;;14.00;99.90;;;;;;4073598;29;20172;-90
2022/10/08 01:35:36;;;;;;;6.57;1.90;;;14.00;99.90;;;;;;4073562;29;20179;-92
2022/10/08 01:37:40;;;;;;;8.90;2.00;;;13.90;99.90;;;;;;4073428;29;20219;-91
2022/10/08 01:39:45;;;;;;;9.95;2.00;;;13.90;99.90;;;;;;4073127;29;20179;-93
2022/10/08 01:41:52;;;;;;;12.80;2.40;;;14.00;99.90;;;;;;4073007;29;20180;-92
2022/10/08 01:44:03;;;;;;;13.10;2.58;;;14.00;99.90;;;;;;4073395;29;20173;-93
2022/10/08 01:46:17;;;;;;;14.45;2.35;;;14.00;99.90;;;;;;4073577;29;20222;-91
2022/10/08 01:48:26;;;;;;;16.27;2.20;;;14.00;99.90;;;;;;4073410;29;20282;-91
2022/10/08 01:50:33;;;;;;;11.98;2.50;;;14.00;99.90;;;;;;4072207;29;20800;-94
2022/10/08 01:52:46;;;;;;;13.32;1.95;;;13.90;99.90;;;;;;4071075;29;20175;-93
2022/10/08 01:54:50;;;;;;;13.75;2.28;;;13.90;99.90;;;;;;4071118;29;20277;-90
2022/10/08 01:56:53;;;;;;;12.77;2.38;;;13.90;99.90;;;;;;4070898;29;20212;-93
2022/10/08 01:59:06;;;;;;;10.25;1.98;;;14.00;99.90;;;;;;4070813;29;20324;-94
2022/10/08 02:01:17;;;;;;;8.88;2.08;;;13.90;99.90;;;;;;4070731;29;20192;-95
2022/10/08 02:03:17;;;;;;;9.10;2.22;;;14.00;99.90;;;;;;4070921;29;20183;-93
2022/10/08 02:05:18;;;;;;;9.02;2.10;;;14.00;99.90;;;;;;4086430;29;20615;-94
2022/10/08 02:07:23;;;;;;;14.52;2.50;;;14.10;99.90;;;;;;4070608;29;20180;-94
2022/10/08 02:09:26;;;;;;;12.52;2.13;;;14.00;99.90;;;;;;4070356;29;20251;-91
2022/10/08 02:11:27;;;;;;;10.73;2.08;;;14.00;99.90;;;;;;4070632;29;20263;-92
2022/10/08 02:13:29;;;;;;;17.27;2.42;;;14.00;99.90;;;;;;4070686;29;20180;-94
2022/10/08 02:16:09;;;;;;;18.98;3.10;;;14.00;99.90;;;;;;4070461;29;20203;-91
2022/10/08 02:18:36;;;;;;;12.75;2.88;;;14.10;99.90;;;;;;4070532;29;20216;-94
2022/10/08 02:20:54;;;;;;;13.00;2.53;;;14.20;99.90;;;;;;4070457;29;20196;-95
2022/10/08 02:23:02;;;;;;;11.25;2.35;;;14.10;99.90;;;;;;4070502;29;20191;-93
2022/10/08 02:25:15;;;;;;;11.85;2.45;;;14.10;99.90;;;;;;4070492;29;20172;-91
2022/10/08 02:27:22;;;;;;;12.98;2.60;;;14.10;99.90;;;;;;4070328;29;20219;-95
2022/10/08 02:29:38;;;;;;;17.05;2.72;;;14.20;99.90;;;;;;4070091;29;20208;-91
2022/10/08 02:31:53;;;;;;;12.23;2.13;;;14.30;99.90;;;;;;4070307;29;20244;-90
2022/10/08 02:34:11;;;;;;;10.23;2.53;;;14.20;99.90;;;;;;4070290;29;20172;-94
2022/10/08 02:36:15;;;;;;;9.98;2.35;;;14.10;99.90;;;;;;4070279;29;20184;-94
2022/10/08 02:38:27;;;;;;;13.32;2.15;;;13.90;99.90;;;;;;4070391;29;20272;-90
2022/10/08 02:40:31;;;;;;;9.63;2.28;;;14.00;99.90;;;;;;4070239;29;20203;-93
2022/10/08 02:42:35;;;;;;;16.85;2.58;;;13.80;99.90;;;;;;4070039;29;20275;-94
2022/10/08 02:44:41;;;;;;;12.07;2.40;;;13.70;99.90;;;;;;4070244;29;20263;-95
2022/10/08 02:46:47;;;;;;;10.30;2.13;;;13.50;99.90;;;;;;4070177;29;20186;-94
2022/10/08 02:48:58;;;;;;;10.88;2.20;;;13.60;99.90;;;;;;4070074;29;20192;-91
2022/10/08 02:51:14;;;;;;;13.20;2.35;;;13.60;99.90;;;;;;4070060;29;20203;-90
2022/10/08 02:53:17;;;;;;;6.57;1.88;;;13.90;99.90;;;;;;4070074;29;20176;-90
2022/10/08 02:55:38;;;;;;;12.38;2.50;;;13.90;99.90;;;;;;4069972;29;20183;-94
2022/10/08 02:57:45;;;;;;;11.43;2.30;;;13.90;99.90;;;;;;4069449;29;20223;-91
2022/10/08 02:59:46;;;;;;;13.95;2.40;;;14.00;99.90;;;;;;4069657;29;20271;-94
2022/10/08 03:01:54;;;;;;;13.52;2.72;;;13.90;99.90;;;;;;4085362;29;20649;-91
2022/10/08 03:04:05;;;;;;;7.50;1.90;;;13.90;99.90;;;;;;4069437;29;20226;-95
2022/10/08 03:06:09;;;;;;;7.50;2.40;;;13.80;99.90;;;;;;4069724;29;20200;-92
2022/10/08 03:08:13;;;;;;;12.77;2.42;;;13.90;99.90;;;;;;4069991;29;20169;-95
2022/10/08 03:10:14;;;;;;;10.57;2.33;;;13.90;99.90;;;;;;4069717;29;20219;-90
2022/10/08 03:12:15;;;;;;;10.93;2.40;;;13.90;99.90;;;;;;4085363;29;20186;-93
2022/10/08 03:14:19;;;;;;;12.85;2.65;;;13.90;99.90;;;;;;4054171;29;20180;-94
2022/10/08 03:16:22;;;;;;;13.35;2.47;;;13.90;99.90;;;;;;4069474;29;20175;-94
2022/10/08 03:18:24;;;;;;;12.52;2.22;;;13.80;99.90;;;;;;4069475;29;20231;-90
2022/10/08 03:20:25;;;;;;;11.48;2.40;;;13.80;99.90;;;;;;4069302;29;20192;-92
2022/10/08 03:22:26;;;;;;;9.52;2.22;;;13.80;99.90;;;;;;4085164;29;20176;-90
2022/10/08 03:24:27;;;;;;;12.15;2.50;;;13.80;99.90;;;;;;4069350;29;20172;-89
2022/10/08 03:26:28;;;;;;;17.58;2.63;;;13.80;99.90;;;;;;4085148;29;20186;-94
2022/10/08 03:28:29;;;;;;;15.27;2.72;;;13.70;99.90;;;;;;4069444;29;20660;-93
2022/10/08 03:30:29;;;;;;;14.77;2.25;;;13.70;99.90;;;;;;4085204;29;20542;-95
2022/10/08 03:32:30;;;;;;;13.20;2.30;;;13.80;99.90;;;;;;4053810;29;20181;-93
2022/10/08 03:34:31;;;;;;;12.55;2.55;;;13.70;99.90;;;;;;4084984;29;20663;-95
2022/10/08 03:36:32;;;;;;;9.80;2.50;;;13.70;99.90;;;;;;4069254;29;20581;-90
2022/10/08 03:38:33;;;;;;;17.23;2.78;;;13.60;99.90;;;;;;4085076;29;20188;-93
2022/10/08 03:40:34;;;;;;;18.73;2.60;;;13.60;99.90;;;;;;4069145;29;20597;-93
2022/10/08 03:42:34;;;;;;;9.05;2.38;;;13.60;99.90;;;;;;4084796;29;20182;-94
2022/10/08 03:44:35;;;;;;;17.42;2.60;;;13.60;99.90;;;;;;4069312;29;20180;-90
2022/10/08 03:46:36;;;;;;;15.25;3.45;;;13.50;99.90;;;;;;4085257;29;20183;-92
2022/10/08 03:48:37;;;;;;;13.85;2.30;;;13.30;99.90;;;;;;4053755;29;20177;-96
2022/10/08 03:50:38;;;;;;;9.02;2.28;;;13.30;99.90;;;;;;4084729;29;20227;-94
2022/10/08 03:52:38;;;;;;;20.25;2.80;;;13.30;99.90;;;;;;4069352;29;20164;-91
2022/10/08 03:54:39;;;;;;;18.05;2.97;;;13.20;99.90;;;;;;4069055;29;20180;-93
2022/10/08 03:56:39;;;;;;;9.60;2.53;;;13.10;99.90;;;;;;4068828;29;20299;-93
2022/10/08 03:58:41;;;;;;;13.00;2.20;;;13.10;99.90;;;;;;4053353;29;20574;-91
2022/10/08 04:00:42;;;;;;;16.80;2.63;;;13.10;99.90;;;;;;4069070;29;20196;-89
2022/10/08 04:02:47;;;;;;;9.45;2.63;;;13.10;99.90;;;;;;4069124;29;20191;-91
2022/10/08 04:04:47;;;;;;;9.82;2.30;;;13.00;99.90;;;;;;4069550;29;20175;-93
2022/10/08 04:06:48;;;;;;;17.23;2.78;;;13.00;99.90;;;;;;4084522;29;20278;-92
2022/10/08 04:08:49;;;;;;;22.83;2.70;;;13.10;99.90;;;;;;4053295;29;20181;-90
2022/10/08 04:10:50;;;;;;;12.32;2.40;;;13.20;99.90;;;;;;4084163;29;20235;-94
2022/10/08 04:12:51;;;;;;;12.25;2.47;;;13.10;99.90;;;;;;4068799;29;20222;-90
2022/10/08 04:14:51;;;;;;;20.13;3.13;;;13.20;99.90;;;;;;4068261;29;20706;-89
2022/10/08 04:16:54;;;;;;;19.48;2.53;;;13.20;99.90;;;;;;4068685;29;20208;-89
2022/10/08 04:18:54;;;;;;;16.98;2.83;;;13.20;99.90;;;;;;4068788;29;20184;-90
2022/10/08 04:21:00;;;;;;;14.98;2.97;;;13.20;99.90;;;;;;4068803;29;20673;-91
2022/10/08 04:23:01;;;;;;;11.60;2.75;;;13.20;99.90;;;;;;4068808;29;20186;-91
2022/10/08 04:25:01;;;;;;;16.02;3.15;;;13.10;99.90;;;;;;4084413;29;20656;-90
2022/10/08 04:27:02;;;;;;;16.58;2.45;;;13.10;99.90;;;;;;4084046;29;20215;-89
2022/10/08 04:29:03;;;;;;;15.27;3.50;;;13.10;99.90;;;;;;4068724;29;20176;-90
2022/10/08 04:31:10;;;;;;;15.82;3.00;;;13.10;99.90;;;;;;4068720;29;20232;-90
2022/10/08 04:33:11;;;;;;;17.00;2.60;;;13.00;99.90;;;;;;4068423;29;20684;-91
2022/10/08 04:35:12;;;;;;;14.55;3.20;;;12.90;99.90;;;;;;4084343;29;20172;-96
2022/10/08 04:37:12;;;;;;;14.90;3.13;;;12.90;99.90;;;;;;4068616;29;20208;-91
2022/10/08 04:39:13;;;;;;;14.75;3.10;;;12.90;99.90;;;;;;4068831;29;20658;-90
2022/10/08 04:41:22;;;;;;;17.52;3.38;;;12.80;99.90;;;;;;4068370;29;20248;-91
2022/10/08 04:43:23;;;;;;;17.55;3.22;;;12.90;99.90;;;;;;4068511;29;20180;-93
2022/10/08 04:45:24;;;;;;;16.10;3.47;;;12.80;99.90;;;;;;4084601;29;20171;-90
2022/10/08 04:47:25;;;;;;;22.85;3.70;;;12.80;99.90;;;;;;4068720;29;20176;-91
2022/10/08 04:49:27;;;;;;;18.83;3.20;;;12.80;99.90;;;;;;4084305;29;20172;-91
2022/10/08 04:51:28;;;;;;;12.07;3.28;;;12.90;99.90;;;;;;4068440;29;20653;-94
2022/10/08 04:53:29;;;;;;;18.05;3.60;;;13.00;99.90;;;;;;4068461;29;20271;-90
2022/10/08 04:55:29;;;;;;;21.25;3.63;;;13.00;99.90;;;;;;4083880;29;20176;-90
2022/10/08 04:57:30;;;;;;;16.30;3.55;;;13.00;99.90;;;;;;4083854;29;20222;-89
2022/10/08 04:59:31;;;;;;;16.85;3.30;;;12.90;99.90;;;;;;4068372;29;20184;-89
2022/10/08 05:01:32;;;;;;;23.88;4.00;;;12.80;99.90;;;;;;4084296;29;20175;-95
2022/10/08 05:03:40;;;;;;;22.65;3.80;;;12.80;99.90;;;;;;4053026;29;20185;-93
2022/10/08 05:05:43;;;;;;;13.38;3.80;;;12.70;99.90;;;;;;4052696;29;20201;-96
2022/10/08 05:07:43;;;;;;;16.92;3.83;;;12.60;99.90;;;;;;4068414;29;20176;-90
2022/10/08 05:09:44;;;;;;;19.40;4.00;;;12.70;99.90;;;;;;4084065;29;20687;-91
2022/10/08 05:11:45;;;;;;;18.80;3.53;;;12.60;99.90;;;;;;4052621;29;20220;-90
2022/10/08 05:13:50;;;;;;;15.13;3.97;;;12.70;99.90;;;;;;4083943;29;20700;-95
2022/10/08 05:15:51;;;;;;;13.40;3.47;;;12.70;99.90;;;;;;4068558;29;20298;-93
2022/10/08 05:17:51;;;;;;;13.25;4.10;;;12.70;99.90;;;;;;4068185;29;20216;-90
2022/10/08 05:19:52;;;;;;;14.80;3.47;;;12.70;99.90;;;;;;4083985;29;20195;-94
2022/10/08 05:21:53;;;;;;;21.23;4.18;;;12.70;99.90;;;;;;4083837;29;20186;-91
2022/10/08 05:24:02;;;;;;;15.77;3.80;;;12.60;99.90;;;;;;4052618;29;20166;-89
2022/10/08 05:26:17;;;;;;;18.08;3.78;;;12.70;99.90;;;;;;4069036;29;20186;-90
2022/10/08 05:28:17;;;;;;;25.88;4.28;;;12.60;99.90;;;;;;4071280;29;20180;-91
2022/10/08 05:30:18;;;;;;;16.52;4.07;;;12.60;99.90;;;;;;4086999;29;20335;-90
2022/10/08 05:32:18;;;;;;;18.65;4.57;;;12.60;99.90;;;;;;4070987;29;20199;-89
2022/10/08 05:34:19;;;;;;;19.23;4.68;;;12.60;99.90;;;;;;4086679;29;20271;-95
2022/10/08 05:36:29;;;;;;;14.63;4.53;;;12.70;99.90;;;;;;4071229;29;20695;-91
2022/10/08 05:38:29;;;;;;;15.75;4.43;;;12.60;99.90;;;;;;4087094;29;20199;-94
2022/10/08 05:40:30;;;;;;;15.88;5.15;;;12.60;99.90;;;;;;4071232;29;20219;-90
2022/10/08 05:42:31;;;;;;;20.10;5.63;;;12.50;99.90;;;;;;4071208;29;20185;-93
2022/10/08 05:44:32;;;;;;;24.90;6.07;;;12.50;99.90;;;;;;4071333;29;20177;-90
2022/10/08 05:46:34;;;;;;;21.20;6.05;;;12.50;99.90;;;;;;4086879;29;20180;-90
2022/10/08 05:48:35;;;;;;;17.20;5.25;;;12.50;99.90;;;;;;4070757;29;20235;-90
2022/10/08 05:50:36;;;;;;;21.38;5.50;;;12.50;99.90;;;;;;4070829;29;20700;-91
2022/10/08 05:52:37;;;;;;;26.45;5.93;;;12.40;99.90;;;;;;4055627;29;20233;-92
2022/10/08 05:54:37;;;;;;;21.30;5.75;;;12.30;99.90;;;;;;4086624;29;20596;-93
2022/10/08 05:56:38;;;;;;;27.55;12.88;;;12.30;99.90;;;;;;4055161;29;20268;-89
2022/10/08 05:58:40;;;;;;;39.92;16.23;;;12.30;99.90;;;;;;4070800;29;20188;-96
2022/10/08 06:00:41;;;;;;;38.08;21.08;;;12.30;99.90;;;;;;4070806;29;20188;-95
2022/10/08 06:02:41;;;;;;;27.33;11.30;;;12.30;99.90;;;;;;4086557;29;20189;-93
2022/10/08 06:04:42;;;;;;;26.40;10.60;;;12.30;99.90;;;;;;4070960;29;20188;-93
2022/10/08 06:06:43;;;;;;;31.50;17.70;;;12.10;99.90;;;;;;4054972;29;20196;-94
2022/10/08 06:08:44;;;;;;;48.38;31.27;;;12.10;99.90;;;;;;4070718;29;20184;-89
2022/10/08 06:10:50;;;;;;;42.13;26.17;;;12.10;99.90;;;;;;4070588;29;20255;-94
2022/10/08 06:12:50;;;;;;;95.32;60.13;;;12.20;99.90;;;;;;4070701;29;20637;-95
2022/10/08 06:14:51;;;;;;;24.98;7.47;;;12.20;99.90;;;;;;4086447;29;20191;-92
2022/10/08 06:16:52;;;;;;;56.30;31.00;;;12.40;99.90;;;;;;4070742;29;20188;-95
2022/10/08 06:18:53;;;;;;;35.65;20.25;;;12.40;99.90;;;;;;4086226;29;20192;-92
2022/10/08 06:20:53;;;;;;;32.50;15.07;;;12.50;99.90;;;;;;4086010;29;20187;-94
2022/10/08 06:22:54;;;;;;;28.45;12.07;;;12.50;99.90;;;;;;4054536;29;20185;-91
2022/10/08 06:24:55;;;;;;;31.95;16.17;;;12.50;99.90;;;;;;4070320;29;20172;-90
2022/10/08 06:26:55;;;;;;;25.63;6.68;;;12.60;99.90;;;;;;4070407;29;20203;-96
2022/10/08 06:28:56;;;;;;;34.67;9.93;;;12.70;99.90;;;;;;4085960;29;20171;-94
2022/10/08 06:30:58;;;;;;;22.35;10.07;;;12.70;99.90;;;;;;4054720;29;20208;-95
2022/10/08 06:32:59;;;;;;;21.63;9.35;;;12.70;99.90;;;;;;4070470;29;20169;-94
2022/10/08 06:34:59;;;;;;;25.98;8.18;;;12.80;99.90;;;;;;4085948;29;20246;-91
2022/10/08 06:37:00;;;;;;;71.03;41.60;;;12.90;99.90;;;;;;4069942;29;20216;-94
2022/10/08 06:39:05;;;;;;;41.63;16.65;;;12.90;99.90;;;;;;4085782;29;20163;-89
2022/10/08 06:41:05;;;;;;;21.65;7.40;;;12.90;99.90;;;;;;4054529;29;20208;-89
2022/10/08 06:43:14;;;;;;;37.63;18.92;;;13.30;99.90;;;;;;4085905;29;20267;-90
2022/10/08 06:45:15;;;;;;;58.13;35.05;;;13.90;99.90;;;;;;4070093;29;20275;-94
2022/10/08 06:47:15;;;;;;;20.88;8.38;;;14.50;99.90;;;;;;4085726;29;20179;-91
2022/10/08 06:49:17;;;;;;;30.80;15.00;;;15.20;99.90;;;;;;4070068;29;20195;-89
2022/10/08 06:51:18;;;;;;;38.75;19.45;;;15.70;99.90;;;;;;4069827;29;20210;-94
2022/10/08 06:53:19;;;;;;;46.97;27.17;;;15.80;99.90;;;;;;4070047;29;20219;-95
2022/10/08 06:55:19;;;;;;;59.53;33.25;;;15.40;99.90;;;;;;4054230;29;20177;-92
2022/10/08 06:57:20;;;;;;;35.92;13.15;;;15.40;99.90;;;;;;4085487;29;20274;-94
2022/10/08 06:59:21;;;;;;;78.30;48.10;;;15.50;99.90;;;;;;4054351;29;20177;-93
2022/10/08 07:01:24;;;;;;;73.80;44.92;;;15.70;99.90;;;;;;4069684;29;20729;-95
2022/10/08 07:03:25;;;;;;;30.95;13.95;;;15.70;99.90;;;;;;4069845;29;20181;-90
2022/10/08 07:05:25;;;;;;;45.17;23.30;;;15.80;99.90;;;;;;4085505;29;20184;-90
2022/10/08 07:07:26;;;;;;;50.65;25.33;;;15.90;99.90;;;;;;4054175;29;20245;-95
2022/10/08 07:09:27;;;;;;;22.58;5.70;;;16.10;99.90;;;;;;4069814;29;20167;-89
2022/10/08 07:11:29;;;;;;;10.63;3.83;;;16.50;99.90;;;;;;4069370;29;20191;-95
2022/10/08 07:13:29;;;;;;;17.70;5.68;;;16.90;99.90;;;;;;4085381;29;20174;-93
2022/10/08 07:15:31;;;;;;;17.30;6.80;;;17.00;99.90;;;;;;4069566;29;20172;-94
2022/10/08 07:17:32;;;;;;;26.40;11.63;;;16.60;99.90;;;;;;4069743;29;20208;-93
2022/10/08 07:19:32;;;;;;;19.75;5.10;;;16.30;99.90;;;;;;4054297;29;20181;-95
2022/10/08 07:21:33;;;;;;;31.13;12.43;;;15.90;99.90;;;;;;4085798;29;20179;-90
2022/10/08 07:23:34;;;;;;;17.45;8.00;;;15.60;99.90;;;;;;4085225;29;20182;-90
2022/10/08 07:25:34;;;;;;;15.18;5.80;;;15.30;99.90;;;;;;4069497;29;20165;-95
2022/10/08 07:27:36;;;;;;;29.27;11.20;;;15.30;99.90;;;;;;4085107;29;20186;-90
2022/10/08 07:29:37;;;;;;;17.25;4.60;;;14.80;99.90;;;;;;4069200;29;20704;-94
2022/10/08 07:31:38;;;;;;;21.80;6.60;;;14.80;99.90;;;;;;4069539;29;20213;-91
2022/10/08 07:33:39;;;;;;;18.17;4.55;;;14.70;99.90;;;;;;4085136;29;20188;-90
2022/10/08 07:35:40;;;;;;;19.92;6.80;;;14.80;99.90;;;;;;4069501;29;20339;-94
2022/10/08 07:37:41;;;;;;;18.05;4.82;;;14.80;99.90;;;;;;4069320;29;20255;-90
2022/10/08 07:39:42;;;;;;;30.38;8.00;;;14.90;99.90;;;;;;4069472;29;20191;-95
2022/10/08 07:41:43;;;;;;;14.48;4.22;;;14.90;99.90;;;;;;4069259;29;20175;-92
2022/10/08 07:43:43;;;;;;;15.43;5.47;;;15.20;99.90;;;;;;4084820;29;20187;-90
2022/10/08 07:45:44;;;;;;;23.48;5.82;;;15.40;99.90;;;;;;4069406;29;20346;-95
2022/10/08 07:47:45;;;;;;;13.13;3.63;;;15.30;99.90;;;;;;4069200;29;20232;-93
2022/10/08 07:49:46;;;;;;;19.63;4.15;;;15.50;99.90;;;;;;4083987;29;20204;-91
2022/10/08 07:51:47;;;;;;;13.50;3.53;;;15.40;99.90;;;;;;4084697;29;20164;-94
2022/10/08 07:53:48;;;;;;;16.98;4.03;;;15.70;99.90;;;;;;4069380;29;20542;-95
2022/10/08 07:55:49;;;;;;;14.95;4.00;;;16.50;99.90;;;;;;4084652;29;20160;-93
2022/10/08 07:57:49;;;;;;;9.50;2.20;;;17.50;99.90;;;;;;4053793;29;20220;-96
2022/10/08 07:59:50;;;;;;;16.08;3.05;;;18.20;99.90;;;;;;4084809;29;20226;-93
2022/10/08 08:01:51;;;;;;;14.98;2.95;;;19.00;99.90;;;;;;4069184;29;20172;-94
2022/10/08 08:03:54;;;;;;;12.00;2.60;;;19.30;99.90;;;;;;4069072;29;20208;-94
2022/10/08 08:06:08;;;;;;;10.15;2.28;;;19.40;99.90;;;;;;4069027;29;20204;-92
2022/10/08 08:08:10;;;;;;;12.95;2.88;;;19.30;99.90;;;;;;4069448;29;20179;-92
2022/10/08 08:10:10;;;;;;;10.98;1.73;;;19.50;99.90;;;;;;4069039;29;20681;-94
2022/10/08 08:12:11;;;;;;;13.27;2.08;;;19.60;99.90;;;;;;4053151;29;20173;-95
2022/10/08 08:14:12;;;;;;;9.50;1.88;;;19.90;99.90;;;;;;4084674;29;20180;-93
2022/10/08 08:16:17;;;;;;;13.88;1.98;;;20.20;99.90;;;;;;4053404;29;20187;-94
2022/10/08 08:18:18;;;;;;;9.20;1.75;;;20.40;99.90;;;;;;4068875;29;20222;-94
2022/10/08 08:20:19;;;;;;;13.70;2.13;;;20.10;99.90;;;;;;4084501;29;20187;-90
2022/10/08 08:22:19;;;;;;;9.13;1.70;;;19.60;99.90;;;;;;4084434;29;20653;-93
2022/10/08 08:24:23;;;;;;;9.77;1.60;;;20.00;99.90;;;;;;4068923;29;20267;-89
2022/10/08 08:26:31;;;;;;;6.68;1.38;;;20.20;99.90;;;;;;4068549;29;20180;-90
2022/10/08 08:28:32;;;;;;;9.27;1.50;;;20.00;99.90;;;;;;4068819;29;20645;-92
2022/10/08 08:30:33;;;;;;;6.53;1.20;;;19.00;99.90;;;;;;4068625;29;20286;-90
2022/10/08 08:32:34;;;;;;;12.45;1.83;;;18.90;99.90;;;;;;4068640;29;20235;-91
2022/10/08 08:34:34;;;;;;;8.60;1.95;;;18.90;99.90;;;;;;4084506;29;20274;-92
2022/10/08 08:36:38;;;;;;;9.48;1.52;;;19.40;99.90;;;;;;4068528;29;20287;-94
2022/10/08 08:38:39;;;;;;;8.27;1.33;;;19.40;99.90;;;;;;4068768;29;20262;-94
2022/10/08 08:40:39;;;;;;;7.95;1.40;;;19.60;99.90;;;;;;4068432;29;20215;-94
2022/10/08 08:42:55;;;;;;;8.88;1.65;;;19.90;99.90;;;;;;4052719;29;20180;-92
2022/10/08 08:45:13;;;;;;;11.50;1.80;;;20.20;99.90;;;;;;4068387;29;20255;-90
2022/10/08 08:47:20;;;;;;;9.77;1.40;;;19.90;99.90;;;;;;4068515;29;20274;-94
2022/10/08 08:49:25;;;;;;;9.43;1.50;;;19.50;99.90;;;;;;4068392;29;20626;-91
2022/10/08 08:51:26;;;;;;;6.63;1.42;;;19.20;99.90;;;;;;4068647;29;20227;-94
2022/10/08 08:53:27;;;;;;;8.70;1.67;;;19.20;99.90;;;;;;4068763;29;20215;-93
2022/10/08 08:55:47;;;;;;;9.88;1.40;;;19.30;99.90;;;;;;4068702;29;20236;-91
2022/10/08 08:58:02;;;;;;;8.88;1.67;;;19.70;99.90;;;;;;4068803;29;20212;-92
2022/10/08 09:00:05;;;;;;;11.18;1.73;;;19.90;99.90;;;;;;4069805;29;20223;-89
2022/10/08 09:02:18;;;;;;;5.65;1.17;;;19.90;99.90;;;;;;4071696;29;20180;-90
2022/10/08 09:04:46;;;;;;;8.40;1.40;;;19.80;99.90;;;;;;4071709;29;20179;-94
2022/10/08 09:06:50;;;;;;;6.53;1.30;;;19.40;99.90;;;;;;4071414;29;20196;-93
2022/10/08 09:09:15;;;;;;;11.50;1.45;;;19.70;99.90;;;;;;4071477;29;20224;-92
2022/10/08 09:11:19;;;;;;;10.25;1.30;;;19.10;99.90;;;;;;4071574;29;20207;-92
2022/10/08 09:13:29;;;;;;;9.85;1.50;;;17.80;99.90;;;;;;4071560;29;20263;-93
2022/10/08 09:15:36;;;;;;;7.80;0.90;;;17.50;99.90;;;;;;4071425;29;20180;-89
2022/10/08 09:17:39;;;;;;;8.57;1.15;;;17.40;99.90;;;;;;4071523;29;20249;-93
2022/10/08 09:19:40;;;;;;;17.20;1.80;;;17.00;99.90;;;;;;4071272;29;20176;-89
2022/10/08 09:21:41;;;;;;;8.77;1.30;;;16.80;99.90;;;;;;4087013;29;20545;-95
2022/10/08 09:23:42;;;;;;;7.53;1.33;;;16.90;99.90;;;;;;4055580;29;20236;-91
2022/10/08 09:25:48;;;;;;;11.63;1.38;;;17.60;99.90;;;;;;4071567;29;20752;-92
2022/10/08 09:27:53;;;;;;;10.82;1.50;;;17.90;99.90;;;;;;4071289;29;20248;-94
2022/10/08 09:29:53;;;;;;;5.25;1.10;;;18.30;99.90;;;;;;4071308;29;20204;-90
2022/10/08 09:31:54;;;;;;;8.18;1.40;;;18.60;99.90;;;;;;4087008;29;20176;-90
2022/10/08 09:34:11;;;;;;;9.77;1.30;;;18.50;99.90;;;;;;4055772;29;20180;-91
2022/10/08 09:36:12;;;;;;;7.93;1.05;;;18.90;99.90;;;;;;4086691;29;20731;-92
2022/10/08 09:38:25;;;;;;;6.00;1.10;;;19.00;99.90;;;;;;4070977;29;20236;-94
2022/10/08 09:40:27;;;;;;;7.35;1.45;;;18.50;99.90;;;;;;4070911;29;20291;-93
2022/10/08 09:42:28;;;;;;;13.48;1.23;;;18.50;99.90;;;;;;4071198;29;20292;-90
2022/10/08 09:44:40;;;;;;;8.15;1.00;;;17.70;99.90;;;;;;4087002;29;20179;-90
2022/10/08 09:46:41;;;;;;;12.45;1.25;;;17.30;99.90;;;;;;4071128;29;20172;-93
2022/10/08 09:48:44;;;;;;;7.35;1.02;;;17.20;99.90;;;;;;4071014;29;20180;-94
2022/10/08 09:50:59;;;;;;;10.50;1.58;;;17.00;99.90;;;;;;4071015;29;20272;-92
2022/10/08 09:53:00;;;;;;;7.90;1.45;;;16.90;99.90;;;;;;4070966;29;20192;-92
2022/10/08 09:55:08;;;;;;;10.25;1.65;;;16.70;99.90;;;;;;4086646;29;20291;-91
2022/10/08 09:57:14;;;;;;;6.05;1.05;;;16.70;99.90;;;;;;4070835;29;20298;-91
2022/10/08 09:59:19;;;;;;;8.75;1.02;;;16.70;99.90;;;;;;4071822;29;20244;-92
2022/10/08 10:01:20;;;;;;;6.32;0.88;;;16.70;99.90;;;;;;4071420;29;20275;-93
2022/10/08 10:03:21;;;;;;;8.43;0.93;;;16.50;99.90;;;;;;4087704;29;20176;-92
2022/10/08 10:05:27;;;;;;;9.93;1.23;;;16.60;99.90;;;;;;4087243;29;20192;-92
2022/10/08 10:07:43;;;;;;;9.38;0.98;;;16.60;99.90;;;;;;4086362;29;20172;-91
2022/10/08 10:09:54;;;;;;;6.60;1.08;;;16.70;99.90;;;;;;4086291;29;20214;-92
2022/10/08 10:12:12;;;;;;;7.03;0.93;;;16.60;99.90;;;;;;4069894;29;20247;-92
2022/10/08 10:14:28;;;;;;;8.68;1.30;;;16.50;99.90;;;;;;4070591;29;20621;-92
2022/10/08 10:16:39;;;;;;;10.85;0.98;;;16.40;99.90;;;;;;4070432;29;20597;-91
2022/10/08 10:18:57;;;;;;;10.35;1.52;;;16.50;99.90;;;;;;4070401;29;20188;-93
2022/10/08 10:21:03;;;;;;;6.20;1.05;;;16.60;99.90;;;;;;4070249;29;20200;-93
2022/10/08 10:23:12;;;;;;;8.15;1.25;;;16.70;99.90;;;;;;4070771;29;20283;-91
2022/10/08 10:25:23;;;;;;;6.35;1.10;;;16.90;99.90;;;;;;4070161;29;20203;-91
2022/10/08 10:27:28;;;;;;;6.57;1.00;;;16.90;99.90;;;;;;4070471;29;20187;-91
2022/10/08 10:29:42;;;;;;;10.75;1.00;;;17.00;99.90;;;;;;4070303;29;20180;-93
2022/10/08 10:32:07;;;;;;;13.80;1.20;;;17.10;99.90;;;;;;4070499;29;20183;-91
2022/10/08 10:34:08;;;;;;;7.68;1.38;;;17.00;99.90;;;;;;4070458;29;20251;-92
2022/10/08 10:36:13;;;;;;;8.68;1.30;;;17.10;99.90;;;;;;4070268;29;20187;-92
2022/10/08 10:38:38;;;;;;;5.50;1.15;;;17.10;99.90;;;;;;4070145;29;20212;-92
2022/10/08 10:40:46;;;;;;;6.85;1.05;;;17.20;99.90;;;;;;4070642;29;20335;-91
2022/10/08 10:43:13;;;;;;;11.18;1.60;;;17.20;99.90;;;;;;4070792;29;20167;-92